createdAt,value
2023-03-17T00:02:45.694Z,6.400
2023-03-17T00:07:45.789Z,6.200
2023-03-17T00:13:46.139Z,6.500
2023-03-17T00:18:45.886Z,6.200
2023-03-17T00:23:45.312Z,5.200
2023-03-17T00:28:46.137Z,5.300
2023-03-17T00:33:46.129Z,5.400
2023-03-17T00:38:45.583Z,5.300
2023-03-17T00:39:45.284Z,5.700
2023-03-17T00:40:47.448Z,6.000
2023-03-17T00:42:45.580Z,6.200
2023-03-17T00:43:48.454Z,5.400
2023-03-17T00:44:46.088Z,5.700
2023-03-17T00:45:45.688Z,5.700
2023-03-17T00:48:45.941Z,5.000
2023-03-17T00:49:45.732Z,5.300
2023-03-17T00:50:46.088Z,5.300
2023-03-17T00:51:45.755Z,5.000
2023-03-17T00:53:45.890Z,5.200
2023-03-17T00:55:46.055Z,5.000
2023-03-17T00:58:45.819Z,6.000
2023-03-17T01:00:46.428Z,4.800
2023-03-17T01:01:46.302Z,5.100
2023-03-17T01:02:46.341Z,5.200
2023-03-17T01:03:45.893Z,4.900
2023-03-17T01:05:45.580Z,5.000
2023-03-17T01:08:45.359Z,5.100
2023-03-17T01:10:46.151Z,4.700
2023-03-17T01:11:45.917Z,5.500
2023-03-17T01:13:46.204Z,4.600
2023-03-17T01:15:45.492Z,5.100
2023-03-17T01:18:46.296Z,4.700
2023-03-17T01:20:46.123Z,4.600
2023-03-17T01:23:46.014Z,4.200
2023-03-17T01:25:46.131Z,4.000
2023-03-17T01:27:45.333Z,3.900
2023-03-17T01:28:45.845Z,4.000
2023-03-17T01:30:46.539Z,4.100
2023-03-17T01:33:45.797Z,4.300
2023-03-17T01:35:46.154Z,4.100
2023-03-17T01:38:45.968Z,4.200
2023-03-17T01:40:46.637Z,4.400
2023-03-17T01:42:46.040Z,4.700
2023-03-17T01:43:45.676Z,4.000
2023-03-17T01:45:46.101Z,4.400
2023-03-17T01:48:46.039Z,4.300
2023-03-17T01:50:45.371Z,3.700
2023-03-17T01:51:45.873Z,4.000
2023-03-17T01:53:46.049Z,3.500
2023-03-17T01:55:45.208Z,3.800
2023-03-17T01:56:45.909Z,3.800
2023-03-17T01:58:46.144Z,4.000
2023-03-17T02:00:45.647Z,3.900
2023-03-17T02:01:45.606Z,3.900
2023-03-17T02:03:45.803Z,3.800
2023-03-17T02:05:45.084Z,3.700
2023-03-17T02:06:58.212Z,4.100
2023-03-17T02:08:48.135Z,4.100
2023-03-17T02:09:48.720Z,3.800
2023-03-17T02:10:48.973Z,3.700
2023-03-17T02:11:48.550Z,3.900
2023-03-17T02:12:49.121Z,4.500
2023-03-17T02:13:48.672Z,4.500
2023-03-17T02:15:48.671Z,4.100
2023-03-17T02:16:48.572Z,4.100
2023-03-17T02:18:48.838Z,4.100
2023-03-17T02:20:49.989Z,3.600
2023-03-17T02:21:48.601Z,4.400
2023-03-17T02:22:49.037Z,4.100
2023-03-17T02:23:48.638Z,3.400
2023-03-17T02:25:48.770Z,4.000
2023-03-17T02:26:48.357Z,3.500
2023-03-17T02:27:49.005Z,3.300
2023-03-17T02:28:48.874Z,3.500
2023-03-17T02:30:49.790Z,4.400
2023-03-17T02:31:48.449Z,3.500
2023-03-17T02:32:49.126Z,4.300
2023-03-17T02:33:48.762Z,4.500
2023-03-17T02:35:49.141Z,3.900
2023-03-17T02:36:49.111Z,3.700
2023-03-17T02:37:48.684Z,4.300
2023-03-17T02:39:48.796Z,3.700
2023-03-17T02:40:49.071Z,3.700
2023-03-17T02:41:48.748Z,3.700
2023-03-17T02:43:49.729Z,4.000
2023-03-17T02:45:49.081Z,4.200
2023-03-17T02:46:48.900Z,3.900
2023-03-17T02:47:48.639Z,4.000
2023-03-17T02:49:48.773Z,3.900
2023-03-17T02:50:49.198Z,3.900
2023-03-17T02:51:48.895Z,4.200
2023-03-17T02:53:49.249Z,4.000
2023-03-17T02:54:48.837Z,3.900
2023-03-17T02:56:48.977Z,3.800
2023-03-17T02:57:48.665Z,3.800
2023-03-17T02:58:49.241Z,4.100
2023-03-17T02:59:49.058Z,4.000
2023-03-17T03:00:49.390Z,4.000
2023-03-17T03:01:49.102Z,4.000
2023-03-17T03:02:49.001Z,4.200
2023-03-17T03:03:48.621Z,3.600
2023-03-17T03:05:49.000Z,3.800
2023-03-17T03:07:49.201Z,3.700
2023-03-17T03:08:49.100Z,3.900
2023-03-17T03:09:48.754Z,4.000
2023-03-17T03:10:48.884Z,4.000
2023-03-17T03:12:49.115Z,3.700
2023-03-17T03:13:48.880Z,3.500
2023-03-17T03:15:49.211Z,4.100
2023-03-17T03:16:48.786Z,4.400
2023-03-17T03:18:48.929Z,3.700
2023-03-17T03:20:49.581Z,3.600
2023-03-17T03:21:49.160Z,4.100
2023-03-17T03:22:48.721Z,3.900
2023-03-17T03:24:48.944Z,4.000
2023-03-17T03:27:48.921Z,4.100
2023-03-17T03:28:49.384Z,3.800
2023-03-17T03:29:48.986Z,4.400
2023-03-17T03:30:49.621Z,4.000
2023-03-17T03:32:49.317Z,4.100
2023-03-17T03:33:48.964Z,3.900
2023-03-17T03:34:48.816Z,4.300
2023-03-17T03:36:49.285Z,3.800
2023-03-17T03:37:48.837Z,4.100
2023-03-17T03:39:51.389Z,4.100
2023-03-17T03:40:49.813Z,3.900
2023-03-17T03:42:49.135Z,3.800
2023-03-17T03:43:53.643Z,4.000
2023-03-17T03:45:50.232Z,3.900
2023-03-17T03:46:49.317Z,4.100
2023-03-17T03:47:48.937Z,3.800
2023-03-17T03:49:49.073Z,4.000
2023-03-17T03:50:49.272Z,3.900
2023-03-17T03:51:49.062Z,4.100
2023-03-17T03:52:48.866Z,3.700
2023-03-17T03:54:49.113Z,4.400
2023-03-17T03:55:48.828Z,4.300
2023-03-17T03:56:49.267Z,4.100
2023-03-17T03:57:48.886Z,4.000
2023-03-17T03:58:48.733Z,3.900
2023-03-17T03:59:48.706Z,4.300
2023-03-17T04:00:49.171Z,4.000
2023-03-17T04:01:48.796Z,3.900
2023-03-17T04:02:48.755Z,4.200
2023-03-17T04:04:49.494Z,4.000
2023-03-17T04:05:49.152Z,4.100
2023-03-17T04:06:48.741Z,4.600
2023-03-17T04:08:48.995Z,4.300
2023-03-17T04:09:48.681Z,4.500
2023-03-17T04:10:48.885Z,4.400
2023-03-17T04:12:49.136Z,4.000
2023-03-17T04:13:48.817Z,4.200
2023-03-17T04:16:55.288Z,3.800
2023-03-17T04:19:49.385Z,4.100
2023-03-17T04:20:50.030Z,4.600
2023-03-17T04:21:48.630Z,4.500
2023-03-17T04:23:49.145Z,3.900
2023-03-17T04:24:48.981Z,4.800
2023-03-17T04:25:48.629Z,4.700
2023-03-17T04:27:48.993Z,4.700
2023-03-17T04:28:48.728Z,4.800
2023-03-17T04:30:50.058Z,4.200
2023-03-17T04:31:48.957Z,4.200
2023-03-17T04:32:48.775Z,4.500
2023-03-17T04:33:48.913Z,4.400
2023-03-17T04:35:49.236Z,3.900
2023-03-17T04:36:49.000Z,4.800
2023-03-17T04:39:48.848Z,4.400
2023-03-17T04:40:49.120Z,4.500
2023-03-17T04:41:48.883Z,5.000
2023-03-17T04:43:48.945Z,4.500
2023-03-17T04:44:48.695Z,4.700
2023-03-17T04:46:49.269Z,5.200
2023-03-17T04:47:48.777Z,4.600
2023-03-17T04:49:48.953Z,4.300
2023-03-17T04:50:49.187Z,4.700
2023-03-17T04:51:49.078Z,4.800
2023-03-17T04:53:49.196Z,4.300
2023-03-17T04:54:49.001Z,4.500
2023-03-17T04:55:48.613Z,4.400
2023-03-17T04:57:48.824Z,4.700
2023-03-17T04:59:49.113Z,4.000
2023-03-17T05:00:49.516Z,4.600
2023-03-17T05:01:49.424Z,5.200
2023-03-17T05:02:49.176Z,5.300
2023-03-17T05:05:48.824Z,5.400
2023-03-17T05:07:51.672Z,4.900
2023-03-17T05:09:49.009Z,4.100
2023-03-17T05:10:49.438Z,4.500
2023-03-17T05:11:49.065Z,4.100
2023-03-17T05:12:48.712Z,4.000
2023-03-17T05:14:49.146Z,3.900
2023-03-17T05:15:48.961Z,4.600
2023-03-17T05:16:48.805Z,5.300
2023-03-17T05:18:49.112Z,4.600
2023-03-17T05:19:48.626Z,4.000
2023-03-17T05:20:49.073Z,4.600
2023-03-17T05:21:48.867Z,3.900
2023-03-17T05:22:48.623Z,4.700
2023-03-17T05:23:49.195Z,3.700
2023-03-17T05:24:48.896Z,4.400
2023-03-17T05:26:49.076Z,4.400
2023-03-17T05:27:48.767Z,4.400
2023-03-17T05:29:48.994Z,4.000
2023-03-17T05:30:49.629Z,4.500
2023-03-17T05:32:49.397Z,4.400
2023-03-17T05:33:49.045Z,4.500
2023-03-17T05:34:48.652Z,4.800
2023-03-17T05:36:48.940Z,4.900
2023-03-17T05:38:48.960Z,4.600
2023-03-17T05:40:49.260Z,4.100
2023-03-17T05:41:48.845Z,4.500
2023-03-17T05:43:49.162Z,5.100
2023-03-17T05:44:48.713Z,5.800
2023-03-17T05:46:49.131Z,4.400
2023-03-17T05:47:48.711Z,4.800
2023-03-17T05:49:49.001Z,4.200
2023-03-17T05:50:49.522Z,4.500
2023-03-17T05:51:49.054Z,4.500
2023-03-17T05:52:48.654Z,4.700
2023-03-17T05:54:48.881Z,4.800
2023-03-17T05:55:48.436Z,4.800
2023-03-17T05:56:48.951Z,4.800
2023-03-17T05:58:49.017Z,5.100
2023-03-17T05:59:48.703Z,5.200
2023-03-17T06:00:50.591Z,5.100
2023-03-17T06:02:49.117Z,5.200
2023-03-17T06:03:48.963Z,5.400
2023-03-17T06:05:49.088Z,5.400
2023-03-17T06:06:48.720Z,4.600
2023-03-17T06:07:59.991Z,5.000
2023-03-17T06:09:49.546Z,5.100
2023-03-17T06:10:50.794Z,5.200
2023-03-17T06:11:49.497Z,5.100
2023-03-17T06:12:50.057Z,5.000
2023-03-17T06:14:50.155Z,5.600
2023-03-17T06:15:50.775Z,5.600
2023-03-17T06:17:49.930Z,4.800
2023-03-17T06:19:52.774Z,4.800
2023-03-17T06:21:49.937Z,4.900
2023-03-17T06:23:04.267Z,4.400
2023-03-17T06:24:54.844Z,4.500
2023-03-17T06:25:54.212Z,4.600
2023-03-17T06:26:53.928Z,5.600
2023-03-17T06:27:53.416Z,4.500
2023-03-17T06:29:53.635Z,5.100
2023-03-17T06:31:54.392Z,5.200
2023-03-17T06:32:58.486Z,5.200
2023-03-17T06:34:53.694Z,4.800
2023-03-17T06:36:56.395Z,4.700
2023-03-17T06:39:54.012Z,4.400
2023-03-17T06:41:54.602Z,4.900
2023-03-17T06:43:53.685Z,5.200
2023-03-17T06:44:53.275Z,4.700
2023-03-17T06:46:53.759Z,5.300
2023-03-17T06:48:53.929Z,5.000
2023-03-17T06:49:53.484Z,5.200
2023-03-17T06:51:53.693Z,5.300
2023-03-17T06:53:53.743Z,4.600
2023-03-17T06:54:53.335Z,5.300
2023-03-17T06:56:58.376Z,4.800
2023-03-17T06:57:54.818Z,4.100
2023-03-17T06:59:53.920Z,4.200
2023-03-17T07:01:54.483Z,4.200
2023-03-17T07:03:55.340Z,3.900
2023-03-17T07:06:53.424Z,4.600
2023-03-17T07:08:53.517Z,3.500
2023-03-17T07:10:53.601Z,3.300
2023-03-17T07:11:53.253Z,3.700
2023-03-17T07:13:53.369Z,3.700
2023-03-17T07:15:59.162Z,4.000
2023-03-17T07:16:54.407Z,4.100
2023-03-17T07:18:53.720Z,4.000
2023-03-17T07:20:54.085Z,4.300
2023-03-17T07:21:53.704Z,4.100
2023-03-17T07:23:54.017Z,4.000
2023-03-17T07:25:54.426Z,4.100
2023-03-17T07:26:54.556Z,3.700
2023-03-17T07:28:53.875Z,5.000
2023-03-17T07:30:53.306Z,4.600
2023-03-17T07:31:54.286Z,4.000
2023-03-17T07:33:54.869Z,3.900
2023-03-17T07:35:54.961Z,3.600
2023-03-17T07:36:53.690Z,4.200
2023-03-17T07:38:53.889Z,3.300
2023-03-17T07:40:55.229Z,3.300
2023-03-17T07:43:54.046Z,3.700
2023-03-17T07:45:54.132Z,3.400
2023-03-17T07:48:53.498Z,3.100
2023-03-17T07:51:53.501Z,3.000
2023-03-17T07:53:53.821Z,3.200
2023-03-17T07:55:54.128Z,2.900
2023-03-17T07:56:53.832Z,3.400
2023-03-17T07:58:53.332Z,3.000
2023-03-17T08:00:54.466Z,3.200
2023-03-17T08:01:54.330Z,3.200
2023-03-17T08:04:54.258Z,3.200
2023-03-17T08:05:53.807Z,3.500
2023-03-17T08:06:53.386Z,3.100
2023-03-17T08:08:53.862Z,3.200
2023-03-17T08:10:55.001Z,2.900
2023-03-17T08:13:53.433Z,3.000
2023-03-17T08:15:53.901Z,3.300
2023-03-17T08:18:53.418Z,3.400
2023-03-17T08:20:54.575Z,3.000
2023-03-17T08:23:53.760Z,3.200
2023-03-17T08:25:53.919Z,3.000
2023-03-17T08:28:53.843Z,2.500
2023-03-17T08:30:55.066Z,3.100
2023-03-17T08:33:53.719Z,3.400
2023-03-17T08:35:54.419Z,3.300
2023-03-17T08:38:53.857Z,3.200
2023-03-17T08:40:54.772Z,2.900
2023-03-17T08:43:53.609Z,2.900
2023-03-17T08:45:53.960Z,3.400
2023-03-17T08:48:54.008Z,3.200
2023-03-17T08:50:54.385Z,3.300
2023-03-17T08:52:53.768Z,3.300
2023-03-17T08:53:53.410Z,2.800
2023-03-17T08:55:53.682Z,3.200
2023-03-17T08:57:53.920Z,3.100
2023-03-17T08:58:53.499Z,2.700
2023-03-17T09:00:53.744Z,2.900
2023-03-17T09:02:53.711Z,3.200
2023-03-17T09:03:53.329Z,2.800
2023-03-17T09:05:57.217Z,2.900
2023-03-17T09:07:03.563Z,2.800
2023-03-17T09:08:53.293Z,2.900
2023-03-17T09:09:53.806Z,2.900
2023-03-17T09:10:53.787Z,2.900
2023-03-17T09:12:54.150Z,2.700
2023-03-17T09:13:53.701Z,2.500
2023-03-17T09:15:01.910Z,2.900
2023-03-17T09:15:55.540Z,2.800
2023-03-17T09:17:53.488Z,3.000
2023-03-17T09:18:54.108Z,3.200
2023-03-17T09:19:53.771Z,3.000
2023-03-17T09:21:54.156Z,3.100
2023-03-17T09:22:53.877Z,3.200
2023-03-17T09:24:54.112Z,2.700
2023-03-17T09:27:53.967Z,2.600
2023-03-17T09:29:54.411Z,2.800
2023-03-17T09:30:54.126Z,3.100
2023-03-17T09:31:53.881Z,2.900
2023-03-17T09:32:53.988Z,3.000
2023-03-17T09:33:53.781Z,3.100
2023-03-17T09:34:55.077Z,3.000
2023-03-17T09:35:54.033Z,2.500
2023-03-17T09:37:53.332Z,2.900
2023-03-17T09:38:54.085Z,2.500
2023-03-17T09:39:53.952Z,2.900
2023-03-17T09:40:54.046Z,2.700
2023-03-17T09:42:53.433Z,3.200
2023-03-17T09:43:54.089Z,3.100
2023-03-17T09:44:54.041Z,3.400
2023-03-17T09:45:54.574Z,2.400
2023-03-17T09:47:54.018Z,2.800
2023-03-17T09:49:54.218Z,3.100
2023-03-17T09:50:53.865Z,2.800
2023-03-17T09:52:57.508Z,3.300
2023-03-17T09:53:54.138Z,3.200
2023-03-17T09:54:53.906Z,3.100
2023-03-17T09:57:53.973Z,3.000
2023-03-17T09:58:54.764Z,3.100
2023-03-17T10:00:53.983Z,3.600
2023-03-17T10:01:54.005Z,3.400
2023-03-17T10:02:53.846Z,3.400
2023-03-17T10:04:56.247Z,3.800
2023-03-17T10:05:55.018Z,3.500
2023-03-17T10:06:53.833Z,3.600
2023-03-17T10:08:58.900Z,3.700
2023-03-17T10:10:54.341Z,3.600
2023-03-17T10:11:54.054Z,3.500
2023-03-17T10:12:53.861Z,3.800
2023-03-17T10:14:54.775Z,3.500
2023-03-17T10:15:53.861Z,3.900
2023-03-17T10:16:53.768Z,3.500
2023-03-17T10:18:54.049Z,3.800
2023-03-17T10:20:55.141Z,3.400
2023-03-17T10:22:53.452Z,3.500
2023-03-17T10:23:54.204Z,3.600
2023-03-17T10:24:54.316Z,3.300
2023-03-17T10:25:54.376Z,3.000
2023-03-17T10:26:54.044Z,3.000
2023-03-17T10:29:54.065Z,2.800
2023-03-17T10:30:53.705Z,3.600
2023-03-17T10:32:53.616Z,2.800
2023-03-17T10:34:57.037Z,3.000
2023-03-17T10:35:54.012Z,2.900
2023-03-17T10:38:11.940Z,2.900
2023-03-17T10:39:53.474Z,2.800
2023-03-17T10:40:56.888Z,3.000
2023-03-17T10:42:53.252Z,2.800
2023-03-17T10:43:53.833Z,2.700
2023-03-17T10:45:56.391Z,2.400
2023-03-17T10:46:54.333Z,2.700
2023-03-17T10:47:58.208Z,2.500
2023-03-17T10:48:53.885Z,2.600
2023-03-17T10:50:56.330Z,2.400
2023-03-17T10:51:53.942Z,2.700
2023-03-17T10:53:54.237Z,2.400
2023-03-17T10:54:54.148Z,2.400
2023-03-17T10:55:53.852Z,2.900
2023-03-17T10:57:54.198Z,3.500
2023-03-17T10:58:53.811Z,2.500
2023-03-17T10:59:54.446Z,3.200
2023-03-17T11:00:54.415Z,3.500
2023-03-17T11:01:54.301Z,3.000
2023-03-17T11:02:53.986Z,2.600
2023-03-17T11:03:54.132Z,2.500
2023-03-17T11:04:53.837Z,2.500
2023-03-17T11:06:54.475Z,2.600
2023-03-17T11:07:54.333Z,2.600
2023-03-17T11:08:54.077Z,2.700
2023-03-17T11:09:53.766Z,2.300
2023-03-17T11:11:54.079Z,2.700
2023-03-17T11:14:54.299Z,2.900
2023-03-17T11:15:54.075Z,2.400
2023-03-17T11:16:54.222Z,2.500
2023-03-17T11:17:53.894Z,1.900
2023-03-17T11:19:54.203Z,1.700
2023-03-17T11:20:53.919Z,2.400
2023-03-17T11:22:54.152Z,2.700
2023-03-17T11:24:53.407Z,3.100
2023-03-17T11:25:54.028Z,2.500
2023-03-17T11:27:53.325Z,2.600
2023-03-17T11:28:53.946Z,2.300
2023-03-17T11:30:54.186Z,1.900
2023-03-17T11:31:54.494Z,2.300
2023-03-17T11:32:54.364Z,2.200
2023-03-17T11:33:53.973Z,2.000
2023-03-17T11:35:54.425Z,2.000
2023-03-17T11:36:56.462Z,1.800
2023-03-17T11:41:54.092Z,1.800
2023-03-17T11:42:54.794Z,1.800
2023-03-17T11:43:53.959Z,1.900
2023-03-17T11:45:54.358Z,2.100
2023-03-17T11:46:54.289Z,1.900
2023-03-17T11:47:53.915Z,2.000
2023-03-17T11:49:54.076Z,1.800
2023-03-17T11:50:54.345Z,1.900
2023-03-17T11:51:53.993Z,2.100
2023-03-17T11:54:57.068Z,1.700
2023-03-17T11:56:53.932Z,1.800
2023-03-17T11:59:54.172Z,1.800
2023-03-17T12:00:54.294Z,1.700
2023-03-17T12:01:53.875Z,1.400
2023-03-17T12:03:54.628Z,1.400
2023-03-17T12:05:53.944Z,1.700
2023-03-17T12:08:53.894Z,1.600
2023-03-17T12:10:54.170Z,1.300
2023-03-17T12:13:54.103Z,2.200
2023-03-17T12:15:55.049Z,1.700
2023-03-17T12:16:54.053Z,1.900
2023-03-17T12:18:54.479Z,1.600
2023-03-17T12:19:54.060Z,1.400
2023-03-17T12:20:53.860Z,1.400
2023-03-17T12:22:55.176Z,1.900
2023-03-17T12:24:54.028Z,1.600
2023-03-17T12:26:54.308Z,1.900
2023-03-17T12:27:53.876Z,2.100
2023-03-17T12:29:54.036Z,1.900
2023-03-17T12:31:53.471Z,1.500
2023-03-17T12:32:54.245Z,1.600
2023-03-17T12:33:53.848Z,2.300
2023-03-17T12:35:54.163Z,1.600
2023-03-17T12:36:54.042Z,1.700
2023-03-17T12:39:53.892Z,1.800
2023-03-17T12:42:53.934Z,1.200
2023-03-17T12:44:54.185Z,1.600
2023-03-17T12:45:56.184Z,1.400
2023-03-17T12:46:54.044Z,1.700
2023-03-17T12:48:53.453Z,1.400
2023-03-17T12:49:53.989Z,1.900
2023-03-17T12:51:55.781Z,2.000
2023-03-17T12:53:53.991Z,1.400
2023-03-17T12:54:53.800Z,1.900
2023-03-17T12:56:53.483Z,2.000
2023-03-17T12:57:54.096Z,1.900
2023-03-17T13:00:54.055Z,1.700
2023-03-17T13:01:53.991Z,1.400
2023-03-17T13:02:53.857Z,1.600
2023-03-17T13:04:54.109Z,1.500
2023-03-17T13:05:53.917Z,1.300
2023-03-17T13:07:54.092Z,1.700
2023-03-17T13:08:54.001Z,1.600
2023-03-17T13:11:53.501Z,1.900
2023-03-17T13:12:54.202Z,1.700
2023-03-17T13:13:53.806Z,1.600
2023-03-17T13:15:54.158Z,1.500
2023-03-17T13:16:54.098Z,1.400
2023-03-17T13:19:55.598Z,1.700
2023-03-17T13:21:56.035Z,2.200
2023-03-17T13:24:54.392Z,2.300
2023-03-17T13:25:55.039Z,2.200
2023-03-17T13:26:56.972Z,1.600
2023-03-17T13:28:54.909Z,1.900
2023-03-17T13:29:54.281Z,1.400
2023-03-17T13:30:54.264Z,1.200
2023-03-17T13:31:54.558Z,1.600
2023-03-17T13:32:54.452Z,1.500
2023-03-17T13:33:54.922Z,1.200
2023-03-17T13:36:54.088Z,1.500
2023-03-17T13:39:18.096Z,1.600
2023-03-17T13:40:58.592Z,1.500
2023-03-17T13:42:17.544Z,1.300
2023-03-17T13:44:02.989Z,1.500
2023-03-17T13:45:00.650Z,1.400
2023-03-17T13:46:00.374Z,1.400
2023-03-17T13:47:01.865Z,1.600
2023-03-17T13:48:00.952Z,1.900
2023-03-17T13:50:00.949Z,1.800
2023-03-17T13:52:11.002Z,1.400
2023-03-17T13:54:00.835Z,1.400
2023-03-17T13:55:00.440Z,1.500
2023-03-17T13:56:01.578Z,1.300
2023-03-17T13:57:01.271Z,1.500
2023-03-17T14:00:01.180Z,1.400
2023-03-17T14:01:01.325Z,1.400
2023-03-17T14:04:01.363Z,1.200
2023-03-17T14:05:01.036Z,1.500
2023-03-17T14:09:00.580Z,1.300
2023-03-17T14:12:00.439Z,1.400
2023-03-17T14:13:01.012Z,1.400
2023-03-17T14:15:07.678Z,1.300
2023-03-17T14:17:00.917Z,1.100
2023-03-17T14:19:01.268Z,1.200
2023-03-17T14:20:00.934Z,1.300
2023-03-17T14:22:00.441Z,1.100
2023-03-17T14:23:03.943Z,1.100
2023-03-17T14:25:00.212Z,1.300
2023-03-17T14:28:01.140Z,1.000
2023-03-17T14:31:01.121Z,1.500
2023-03-17T14:32:00.995Z,1.400
2023-03-17T14:34:00.645Z,1.300
2023-03-17T14:35:00.294Z,1.500
2023-03-17T14:36:01.335Z,1.300
2023-03-17T14:40:01.266Z,1.500
2023-03-17T14:44:01.113Z,1.300
2023-03-17T14:48:01.008Z,1.100
2023-03-17T14:51:00.905Z,1.200
2023-03-17T14:53:01.079Z,1.800
2023-03-17T14:56:03.008Z,1.700
2023-03-17T14:57:00.807Z,1.600
2023-03-17T14:59:01.066Z,1.100
2023-03-17T15:01:00.653Z,1.300
2023-03-17T15:02:00.617Z,1.100
2023-03-17T15:04:01.257Z,1.200
2023-03-17T15:05:01.041Z,1.200
2023-03-17T15:07:00.461Z,1.200
2023-03-17T15:09:01.127Z,1.300
2023-03-17T15:13:00.553Z,1.500
2023-03-17T15:17:01.427Z,1.200
2023-03-17T15:18:01.066Z,1.100
2023-03-17T15:23:00.254Z,1.600
2023-03-17T15:26:01.145Z,1.700
2023-03-17T15:28:00.369Z,1.400
2023-03-17T15:29:01.009Z,1.300
2023-03-17T15:31:06.525Z,1.200
2023-03-17T15:32:01.381Z,1.100
2023-03-17T15:33:01.344Z,1.500
2023-03-17T15:34:01.037Z,1.300
2023-03-17T15:36:00.521Z,1.600
2023-03-17T15:39:00.470Z,1.400
2023-03-17T15:40:01.069Z,1.000
2023-03-17T15:41:02.000Z,1.700
2023-03-17T15:43:01.306Z,1.300
2023-03-17T15:44:02.137Z,1.300
2023-03-17T15:46:01.383Z,1.600
2023-03-17T15:47:01.119Z,1.500
2023-03-17T15:49:00.345Z,1.600
2023-03-17T15:50:04.056Z,1.700
2023-03-17T15:52:01.240Z,1.300
2023-03-17T15:54:00.523Z,1.700
2023-03-17T15:55:01.146Z,1.600
2023-03-17T15:58:08.779Z,1.400
2023-03-17T16:02:04.753Z,1.900
2023-03-17T16:04:01.133Z,1.500
2023-03-17T16:05:01.120Z,1.800
2023-03-17T16:08:00.923Z,2.800
2023-03-17T16:10:00.228Z,4.900
2023-03-17T16:11:00.951Z,2.400
2023-03-17T16:13:01.305Z,2.100
2023-03-17T16:15:01.933Z,1.800
2023-03-17T16:16:01.457Z,2.200
2023-03-17T16:17:01.104Z,3.900
2023-03-17T16:18:03.923Z,5.300
2023-03-17T16:20:01.142Z,2.900
2023-03-17T16:23:01.020Z,3.100
2023-03-17T16:25:01.184Z,4.000
2023-03-17T16:26:15.844Z,3.400
2023-03-17T16:28:05.160Z,7.000
2023-03-17T16:29:07.115Z,3.900
2023-03-17T16:30:04.916Z,4.400
2023-03-17T16:33:04.808Z,5.600
2023-03-17T16:34:06.309Z,7.700
2023-03-17T16:35:07.562Z,8.600
2023-03-17T16:38:05.235Z,4.500
2023-03-17T16:40:04.837Z,6.800
2023-03-17T16:43:19.194Z,11.400
2023-03-17T16:45:04.665Z,8.700
2023-03-17T16:46:04.401Z,8.400
2023-03-17T16:47:05.402Z,6.100
2023-03-17T16:48:05.076Z,8.100
2023-03-17T16:49:04.868Z,9.600
2023-03-17T16:52:06.700Z,6.300
2023-03-17T16:56:05.120Z,7.500
2023-03-17T16:57:07.280Z,6.100
2023-03-17T16:59:04.913Z,8.200
2023-03-17T17:01:05.185Z,6.800
2023-03-17T17:02:05.081Z,17.500
2023-03-17T17:05:04.853Z,8.100
2023-03-17T17:08:05.206Z,3.500
2023-03-17T17:09:05.332Z,6.500
2023-03-17T17:10:04.988Z,4.500
2023-03-17T17:12:05.575Z,6.800
2023-03-17T17:14:04.915Z,5.800
2023-03-17T17:16:05.541Z,4.700
2023-03-17T17:17:05.321Z,5.800
2023-03-17T17:18:05.029Z,5.300
2023-03-17T17:20:04.303Z,6.500
2023-03-17T17:21:05.031Z,3.900
2023-03-17T17:23:05.251Z,6.000
2023-03-17T17:24:04.840Z,8.700
2023-03-17T17:26:05.093Z,7.700
2023-03-17T17:27:04.871Z,8.100
2023-03-17T17:29:05.026Z,8.800
2023-03-17T17:31:04.315Z,5.600
2023-03-17T17:32:05.136Z,5.500
2023-03-17T17:33:05.087Z,4.400
2023-03-17T17:36:05.423Z,5.700
2023-03-17T17:37:05.021Z,4.600
2023-03-17T17:39:05.109Z,4.600
2023-03-17T17:41:04.243Z,6.800
2023-03-17T17:42:04.879Z,9.400
2023-03-17T17:44:05.261Z,9.600
2023-03-17T17:45:04.824Z,7.200
2023-03-17T17:47:05.466Z,7.600
2023-03-17T17:48:04.987Z,7.000
2023-03-17T17:49:04.968Z,8.700
2023-03-17T17:51:04.365Z,6.200
2023-03-17T17:52:04.987Z,6.300
2023-03-17T17:53:07.320Z,5.500
2023-03-17T17:54:04.883Z,7.600
2023-03-17T17:56:05.055Z,7.100
2023-03-17T17:59:04.972Z,6.000
2023-03-17T18:02:04.364Z,8.600
2023-03-17T18:03:04.962Z,9.500
2023-03-17T18:05:05.469Z,9.300
2023-03-17T18:06:05.109Z,10.900
2023-03-17T18:09:04.916Z,10.300
2023-03-17T18:11:05.092Z,10.700
2023-03-17T18:14:04.956Z,9.100
2023-03-17T18:16:05.553Z,8.600
2023-03-17T18:17:05.357Z,6.600
2023-03-17T18:18:05.689Z,5.100
2023-03-17T18:20:04.987Z,8.500
2023-03-17T18:22:05.169Z,7.100
2023-03-17T18:23:04.855Z,8.100
2023-03-17T18:25:05.441Z,10.800
2023-03-17T18:26:05.649Z,8.100
2023-03-17T18:27:04.872Z,5.800
2023-03-17T18:29:05.175Z,12.200
2023-03-17T18:30:04.892Z,12.900
2023-03-17T18:33:04.727Z,19.800
2023-03-17T18:35:05.529Z,20.800
2023-03-17T18:36:05.355Z,25.000
2023-03-17T18:37:05.197Z,25.000
2023-03-17T18:39:04.496Z,10.400
2023-03-17T18:40:21.206Z,11.800
2023-03-17T18:42:11.068Z,9.100
2023-03-17T18:43:10.877Z,14.800
2023-03-17T18:44:11.222Z,13.300
2023-03-17T18:45:12.610Z,13.600
2023-03-17T18:50:10.243Z,13.400
2023-03-17T18:55:11.122Z,11.500
2023-03-17T19:00:10.968Z,10.600
2023-03-17T19:01:11.485Z,12.000
2023-03-17T19:07:10.299Z,14.400
2023-03-17T19:12:11.280Z,12.700
2023-03-17T19:13:13.704Z,15.800
2023-03-17T19:17:11.328Z,11.100
2023-03-17T19:22:11.149Z,10.600
2023-03-17T19:27:11.371Z,11.300
2023-03-17T19:33:11.238Z,14.700
2023-03-17T19:34:11.179Z,10.900
2023-03-17T19:38:11.120Z,13.700
2023-03-17T19:43:10.644Z,15.000
2023-03-17T19:44:15.447Z,15.700
2023-03-17T19:48:13.284Z,18.900
2023-03-17T19:53:11.113Z,16.400
2023-03-17T19:58:11.117Z,15.300
2023-03-17T20:00:10.676Z,14.700
2023-03-17T20:03:10.661Z,11.500
2023-03-17T20:05:11.257Z,8.900
2023-03-17T20:08:10.621Z,10.100
2023-03-17T20:10:10.883Z,10.300
2023-03-17T20:15:10.951Z,8.200
2023-03-17T20:20:11.169Z,9.300
2023-03-17T20:25:11.268Z,6.700
2023-03-17T20:30:10.993Z,10.000
2023-03-17T20:35:11.528Z,9.500
2023-03-17T20:37:11.204Z,12.600
2023-03-17T20:40:11.017Z,11.700
2023-03-17T20:42:10.479Z,8.000
2023-03-17T20:47:10.993Z,9.400
2023-03-17T20:52:10.703Z,9.700
2023-03-17T20:57:10.991Z,14.200
2023-03-17T21:02:11.051Z,10.300
2023-03-17T21:07:10.796Z,8.700
2023-03-17T21:12:10.876Z,7.800
2023-03-17T21:14:11.190Z,7.000
2023-03-17T21:19:13.072Z,16.600
2023-03-17T21:24:10.869Z,13.300
2023-03-17T21:29:10.649Z,7.200
2023-03-17T21:34:10.747Z,5.500
2023-03-17T21:39:10.907Z,6.200
2023-03-17T21:44:11.177Z,6.400
2023-03-17T21:45:10.880Z,6.400
2023-03-17T21:49:10.724Z,6.400
2023-03-17T21:54:10.609Z,6.500
2023-03-17T21:59:10.492Z,7.000
2023-03-17T22:01:16.035Z,7.500
2023-03-17T22:04:11.004Z,7.900
2023-03-17T22:06:11.731Z,7.200
2023-03-17T22:09:10.538Z,6.900
2023-03-17T22:11:11.352Z,8.100
2023-03-17T22:14:10.726Z,7.500
2023-03-17T22:16:11.750Z,7.600
2023-03-17T22:19:10.652Z,8.000
2023-03-17T22:21:11.495Z,7.000
2023-03-17T22:24:10.637Z,7.500
2023-03-17T22:26:10.920Z,7.500
2023-03-17T22:31:11.560Z,8.500
2023-03-17T22:36:10.766Z,9.200
2023-03-17T22:38:11.094Z,8.700
2023-03-17T22:41:11.583Z,8.400
2023-03-17T22:43:10.974Z,8.200
2023-03-17T22:46:11.432Z,8.900
2023-03-17T22:48:10.710Z,9.800
2023-03-17T22:50:13.837Z,10.000
2023-03-17T22:52:14.198Z,10.400
2023-03-17T22:53:14.402Z,9.800
2023-03-17T22:58:10.791Z,9.300
2023-03-17T23:03:10.319Z,8.500
2023-03-17T23:08:15.329Z,7.900
2023-03-17T23:13:10.510Z,8.200
2023-03-17T23:18:10.638Z,8.900
2023-03-17T23:24:10.675Z,8.500
2023-03-17T23:29:10.813Z,7.600
2023-03-17T23:30:13.796Z,7.200
2023-03-17T23:34:10.648Z,7.900
2023-03-17T23:39:10.675Z,7.700
2023-03-17T23:40:10.288Z,7.800
2023-03-17T23:44:10.458Z,8.700
2023-03-17T23:45:11.080Z,9.500
2023-03-17T23:51:11.401Z,8.600
2023-03-17T23:56:10.285Z,8.400
